23:54
Airports
History
Links
Donate
Help keep this website running!
PayPal
Bitcoin
This page is community maintained. The information is intended for PC simulator navigation or reference.
Always use approved charts for navigation.
SIXE
Aeroclube de Eldorado do Sul
Aeroclube de Eldorado do Sul (SIXE)
Eldorado do Sul, Rio Grande do Sul, Brazil (92990)
4
Lat/Lng:30° 3' 1" S / 51° 26' 37" W
-30.050278 / -51.443611
Elevation:33'ft / 10mMSL
ID / ICAO:SIXE
Runways:1
Longest:11-29
Dirt 1,593m / 5,227ft
Nearby Weather23:00 GMT 2017-12-12
Nearby weather at SBPA, Salgado Filho located 16.7 nautical miles from SIXE
Altimeter: 29.91
Visibility: 6.2 statute miles
Wind: 15 knots (from 110°)
Temp: 21°c / 70°f
Humidity: 68.6%

METAR: SBPA 122300Z 11015KT CAVOK 21/15 Q1013

(Powered by phpweather)
Runway 11 / 29
Dimensions:1593.2 x 29.9m 5227' x 98'ft
Surface:Dirt
Runway 11 [A]Runway 29 [B]
Heading:095°TH 275°TH
Lat:
Lng:
30° 2' 58.72"S
51° 27' 6.85"W
30° 3' 3.28"S
51° 26' 7.15"W
User Notes and Comments
30° 3' 1" S / 51° 26' 37" W
Distance To
Airport ID:
Nearby Airports
4 Astral 0.8 NM
SSGI SSE 152°
4 El Dorado 2.6 NM
SSMK SE 126°
4 Fazenda do Jacui 9.7 NM
SSJC ENE 61°
(C) Salgado Filho 16.7 NM
SBPA ( WX ) ENE 76°
4 Belem Novo 18.3 NM
SSBN ESE 121°
(C) Canoas 19.3 NM
SBCO ( WX ) ENE 68°
(C) Montenegro 23.0 NM
SSNG N 353°
VFR Chart
Flight Planning at SkyVector.com